sensor_id;sensor_type;location;lat;lon;timestamp;temperature;humidity
37232;DHT22;23125;48.156;15.954;2022-08-19T00:01:33;23.40;57.80
37232;DHT22;23125;48.156;15.954;2022-08-19T00:04:04;23.40;57.90
37232;DHT22;23125;48.156;15.954;2022-08-19T00:06:30;23.30;58.10
37232;DHT22;23125;48.156;15.954;2022-08-19T00:08:57;23.30;58.10
37232;DHT22;23125;48.156;15.954;2022-08-19T00:11:24;23.20;58.20
37232;DHT22;23125;48.156;15.954;2022-08-19T00:13:51;23.20;58.80
37232;DHT22;23125;48.156;15.954;2022-08-19T00:16:18;23.20;58.30
37232;DHT22;23125;48.156;15.954;2022-08-19T00:18:45;23.20;58.50
37232;DHT22;23125;48.156;15.954;2022-08-19T00:21:12;23.20;58.60
37232;DHT22;23125;48.156;15.954;2022-08-19T00:23:37;23.20;58.70
37232;DHT22;23125;48.156;15.954;2022-08-19T00:26:04;23.20;58.70
37232;DHT22;23125;48.156;15.954;2022-08-19T00:28:31;23.20;58.80
37232;DHT22;23125;48.156;15.954;2022-08-19T00:30:59;23.10;58.80
37232;DHT22;23125;48.156;15.954;2022-08-19T00:33:25;23.10;58.70
37232;DHT22;23125;48.156;15.954;2022-08-19T00:35:54;23.10;58.70
37232;DHT22;23125;48.156;15.954;2022-08-19T00:38:20;23.10;58.70
37232;DHT22;23125;48.156;15.954;2022-08-19T00:40:48;23.10;58.70
37232;DHT22;23125;48.156;15.954;2022-08-19T00:43:20;23.10;58.70
37232;DHT22;23125;48.156;15.954;2022-08-19T00:45:47;23.10;58.80
37232;DHT22;23125;48.156;15.954;2022-08-19T00:48:14;23.10;58.90
37232;DHT22;23125;48.156;15.954;2022-08-19T00:50:42;23.00;58.90
37232;DHT22;23125;48.156;15.954;2022-08-19T00:53:11;23.00;59.00
37232;DHT22;23125;48.156;15.954;2022-08-19T00:55:39;23.00;59.00
37232;DHT22;23125;48.156;15.954;2022-08-19T00:58:12;23.00;59.00
37232;DHT22;23125;48.156;15.954;2022-08-19T01:00:38;23.00;59.10
37232;DHT22;23125;48.156;15.954;2022-08-19T01:03:10;23.00;59.00
37232;DHT22;23125;48.156;15.954;2022-08-19T01:05:37;23.00;59.20
37232;DHT22;23125;48.156;15.954;2022-08-19T01:08:06;23.00;59.20
37232;DHT22;23125;48.156;15.954;2022-08-19T01:10:37;22.90;59.00
37232;DHT22;23125;48.156;15.954;2022-08-19T01:13:05;22.90;59.00
37232;DHT22;23125;48.156;15.954;2022-08-19T01:15:34;22.90;59.00
37232;DHT22;23125;48.156;15.954;2022-08-19T01:18:08;22.90;59.10
37232;DHT22;23125;48.156;15.954;2022-08-19T01:20:34;22.80;59.10
37232;DHT22;23125;48.156;15.954;2022-08-19T01:23:02;22.80;59.10
37232;DHT22;23125;48.156;15.954;2022-08-19T01:25:39;22.80;59.20
37232;DHT22;23125;48.156;15.954;2022-08-19T01:28:07;22.80;59.30
37232;DHT22;23125;48.156;15.954;2022-08-19T01:30:34;22.80;59.20
37232;DHT22;23125;48.156;15.954;2022-08-19T01:33:01;22.80;59.20
37232;DHT22;23125;48.156;15.954;2022-08-19T01:35:29;22.80;59.90
37232;DHT22;23125;48.156;15.954;2022-08-19T01:37:56;22.70;59.20
37232;DHT22;23125;48.156;15.954;2022-08-19T01:40:27;22.70;59.20
37232;DHT22;23125;48.156;15.954;2022-08-19T01:42:55;22.70;59.30
37232;DHT22;23125;48.156;15.954;2022-08-19T01:45:24;22.70;59.30
37232;DHT22;23125;48.156;15.954;2022-08-19T01:47:50;22.70;59.30
37232;DHT22;23125;48.156;15.954;2022-08-19T01:50:16;22.60;59.30
37232;DHT22;23125;48.156;15.954;2022-08-19T01:52:43;22.50;59.40
37232;DHT22;23125;48.156;15.954;2022-08-19T01:55:15;22.50;59.60
37232;DHT22;23125;48.156;15.954;2022-08-19T01:57:46;22.40;59.70
37232;DHT22;23125;48.156;15.954;2022-08-19T02:00:16;22.50;59.80
37232;DHT22;23125;48.156;15.954;2022-08-19T02:02:42;22.40;60.00
37232;DHT22;23125;48.156;15.954;2022-08-19T02:05:09;22.40;60.00
37232;DHT22;23125;48.156;15.954;2022-08-19T02:07:36;22.40;60.00
37232;DHT22;23125;48.156;15.954;2022-08-19T02:10:10;22.40;60.10
37232;DHT22;23125;48.156;15.954;2022-08-19T02:12:36;22.40;60.20
37232;DHT22;23125;48.156;15.954;2022-08-19T02:15:03;22.40;60.10
37232;DHT22;23125;48.156;15.954;2022-08-19T02:17:30;22.40;60.20
37232;DHT22;23125;48.156;15.954;2022-08-19T02:19:57;22.30;60.20
37232;DHT22;23125;48.156;15.954;2022-08-19T02:22:24;22.30;60.20
37232;DHT22;23125;48.156;15.954;2022-08-19T02:24:52;22.30;60.30
37232;DHT22;23125;48.156;15.954;2022-08-19T02:27:18;22.30;60.20
37232;DHT22;23125;48.156;15.954;2022-08-19T02:29:46;22.30;60.30
37232;DHT22;23125;48.156;15.954;2022-08-19T02:32:12;22.30;60.40
37232;DHT22;23125;48.156;15.954;2022-08-19T02:34:39;22.30;60.40
37232;DHT22;23125;48.156;15.954;2022-08-19T02:37:05;22.30;60.40
37232;DHT22;23125;48.156;15.954;2022-08-19T02:39:31;22.30;60.30
37232;DHT22;23125;48.156;15.954;2022-08-19T02:41:57;22.20;60.30
37232;DHT22;23125;48.156;15.954;2022-08-19T02:44:25;22.20;60.50
37232;DHT22;23125;48.156;15.954;2022-08-19T02:46:51;22.20;60.50
37232;DHT22;23125;48.156;15.954;2022-08-19T02:49:16;22.20;60.60
37232;DHT22;23125;48.156;15.954;2022-08-19T02:51:44;22.20;60.70
37232;DHT22;23125;48.156;15.954;2022-08-19T02:54:12;22.20;60.70
37232;DHT22;23125;48.156;15.954;2022-08-19T02:56:41;22.20;60.70
37232;DHT22;23125;48.156;15.954;2022-08-19T02:59:08;22.20;60.70
37232;DHT22;23125;48.156;15.954;2022-08-19T03:01:36;22.10;60.80
37232;DHT22;23125;48.156;15.954;2022-08-19T03:04:04;22.10;60.70
37232;DHT22;23125;48.156;15.954;2022-08-19T03:06:31;22.10;60.80
37232;DHT22;23125;48.156;15.954;2022-08-19T03:08:57;22.10;60.80
37232;DHT22;23125;48.156;15.954;2022-08-19T03:11:27;22.10;60.90
37232;DHT22;23125;48.156;15.954;2022-08-19T03:13:54;22.10;60.90
37232;DHT22;23125;48.156;15.954;2022-08-19T03:16:22;22.00;60.70
37232;DHT22;23125;48.156;15.954;2022-08-19T03:18:48;22.10;60.80
37232;DHT22;23125;48.156;15.954;2022-08-19T03:21:20;22.00;60.80
37232;DHT22;23125;48.156;15.954;2022-08-19T03:23:46;22.00;60.90
37232;DHT22;23125;48.156;15.954;2022-08-19T03:26:13;22.00;60.90
37232;DHT22;23125;48.156;15.954;2022-08-19T03:28:43;22.00;61.00
37232;DHT22;23125;48.156;15.954;2022-08-19T03:31:13;22.00;61.10
37232;DHT22;23125;48.156;15.954;2022-08-19T03:33:40;22.00;61.10
37232;DHT22;23125;48.156;15.954;2022-08-19T03:36:18;22.00;61.10
37232;DHT22;23125;48.156;15.954;2022-08-19T03:38:49;21.90;61.00
37232;DHT22;23125;48.156;15.954;2022-08-19T03:41:20;22.00;61.10
37232;DHT22;23125;48.156;15.954;2022-08-19T03:43:46;21.90;61.10
37232;DHT22;23125;48.156;15.954;2022-08-19T03:46:15;21.90;61.10
37232;DHT22;23125;48.156;15.954;2022-08-19T03:48:43;21.90;61.20
37232;DHT22;23125;48.156;15.954;2022-08-19T03:51:17;21.90;61.30
37232;DHT22;23125;48.156;15.954;2022-08-19T03:53:44;21.90;61.40
37232;DHT22;23125;48.156;15.954;2022-08-19T03:56:11;21.90;61.50
37232;DHT22;23125;48.156;15.954;2022-08-19T03:58:39;21.90;61.50
37232;DHT22;23125;48.156;15.954;2022-08-19T04:01:12;21.90;61.50
37232;DHT22;23125;48.156;15.954;2022-08-19T04:03:39;21.90;61.60
37232;DHT22;23125;48.156;15.954;2022-08-19T04:06:27;21.90;61.70
37232;DHT22;23125;48.156;15.954;2022-08-19T04:08:54;21.90;61.70
37232;DHT22;23125;48.156;15.954;2022-08-19T04:11:34;22.00;61.90
37232;DHT22;23125;48.156;15.954;2022-08-19T04:14:00;22.00;62.00
37232;DHT22;23125;48.156;15.954;2022-08-19T04:16:27;22.00;62.00
37232;DHT22;23125;48.156;15.954;2022-08-19T04:18:55;22.10;62.20
37232;DHT22;23125;48.156;15.954;2022-08-19T04:21:25;22.10;62.30
37232;DHT22;23125;48.156;15.954;2022-08-19T04:23:52;22.10;62.30
37232;DHT22;23125;48.156;15.954;2022-08-19T04:26:23;22.10;62.30
37232;DHT22;23125;48.156;15.954;2022-08-19T04:28:49;22.20;62.40
37232;DHT22;23125;48.156;15.954;2022-08-19T04:31:24;22.20;62.40
37232;DHT22;23125;48.156;15.954;2022-08-19T04:33:56;22.20;62.50
37232;DHT22;23125;48.156;15.954;2022-08-19T04:36:26;22.30;62.60
37232;DHT22;23125;48.156;15.954;2022-08-19T04:39:01;22.30;62.50
37232;DHT22;23125;48.156;15.954;2022-08-19T04:41:27;22.40;62.50
37232;DHT22;23125;48.156;15.954;2022-08-19T04:44:13;22.40;62.50
37232;DHT22;23125;48.156;15.954;2022-08-19T04:46:40;22.40;62.60
37232;DHT22;23125;48.156;15.954;2022-08-19T04:49:07;22.50;62.80
37232;DHT22;23125;48.156;15.954;2022-08-19T04:51:34;22.50;62.80
37232;DHT22;23125;48.156;15.954;2022-08-19T04:54:03;22.50;62.90
37232;DHT22;23125;48.156;15.954;2022-08-19T04:56:29;22.50;63.00
37232;DHT22;23125;48.156;15.954;2022-08-19T04:58:56;22.60;63.10
37232;DHT22;23125;48.156;15.954;2022-08-19T05:01:27;22.70;63.20
37232;DHT22;23125;48.156;15.954;2022-08-19T05:04:00;22.70;63.20
37232;DHT22;23125;48.156;15.954;2022-08-19T05:06:27;22.70;63.10
37232;DHT22;23125;48.156;15.954;2022-08-19T05:08:54;22.80;63.10
37232;DHT22;23125;48.156;15.954;2022-08-19T05:11:26;22.80;63.10
37232;DHT22;23125;48.156;15.954;2022-08-19T05:13:54;22.80;63.10
37232;DHT22;23125;48.156;15.954;2022-08-19T05:16:21;22.80;63.10
37232;DHT22;23125;48.156;15.954;2022-08-19T05:18:48;22.90;63.00
37232;DHT22;23125;48.156;15.954;2022-08-19T05:21:33;22.90;63.00
37232;DHT22;23125;48.156;15.954;2022-08-19T05:24:19;23.00;63.20
37232;DHT22;23125;48.156;15.954;2022-08-19T05:26:48;23.00;63.30
37232;DHT22;23125;48.156;15.954;2022-08-19T05:29:20;23.00;63.40
37232;DHT22;23125;48.156;15.954;2022-08-19T05:31:47;23.00;63.30
37232;DHT22;23125;48.156;15.954;2022-08-19T05:34:16;23.10;63.30
37232;DHT22;23125;48.156;15.954;2022-08-19T05:36:43;23.10;63.50
37232;DHT22;23125;48.156;15.954;2022-08-19T05:39:14;23.10;63.70
37232;DHT22;23125;48.156;15.954;2022-08-19T05:41:50;23.10;64.00
37232;DHT22;23125;48.156;15.954;2022-08-19T05:44:17;23.10;64.30
37232;DHT22;23125;48.156;15.954;2022-08-19T05:46:44;23.20;64.50
37232;DHT22;23125;48.156;15.954;2022-08-19T05:49:14;23.30;64.70
37232;DHT22;23125;48.156;15.954;2022-08-19T05:51:42;23.30;64.90
37232;DHT22;23125;48.156;15.954;2022-08-19T05:54:08;23.40;65.20
37232;DHT22;23125;48.156;15.954;2022-08-19T05:56:35;23.50;65.40
37232;DHT22;23125;48.156;15.954;2022-08-19T05:59:05;23.60;65.60
37232;DHT22;23125;48.156;15.954;2022-08-19T06:01:35;23.70;65.70
37232;DHT22;23125;48.156;15.954;2022-08-19T06:04:02;23.80;65.60
37232;DHT22;23125;48.156;15.954;2022-08-19T06:06:28;23.90;65.70
37232;DHT22;23125;48.156;15.954;2022-08-19T06:08:54;24.00;65.60
37232;DHT22;23125;48.156;15.954;2022-08-19T06:14:03;24.10;65.40
37232;DHT22;23125;48.156;15.954;2022-08-19T06:16:30;24.20;65.50
37232;DHT22;23125;48.156;15.954;2022-08-19T06:18:59;24.20;65.60
37232;DHT22;23125;48.156;15.954;2022-08-19T06:21:27;24.30;65.70
37232;DHT22;23125;48.156;15.954;2022-08-19T06:23:55;24.40;65.70
37232;DHT22;23125;48.156;15.954;2022-08-19T06:26:22;24.50;65.60
37232;DHT22;23125;48.156;15.954;2022-08-19T06:28:49;24.50;65.40
37232;DHT22;23125;48.156;15.954;2022-08-19T06:31:19;24.60;65.20
37232;DHT22;23125;48.156;15.954;2022-08-19T06:33:47;24.60;65.30
37232;DHT22;23125;48.156;15.954;2022-08-19T06:36:25;24.60;65.20
37232;DHT22;23125;48.156;15.954;2022-08-19T06:39:06;24.70;65.30
37232;DHT22;23125;48.156;15.954;2022-08-19T06:41:36;24.70;65.20
37232;DHT22;23125;48.156;15.954;2022-08-19T06:44:04;24.80;65.30
37232;DHT22;23125;48.156;15.954;2022-08-19T06:46:30;24.80;65.30
37232;DHT22;23125;48.156;15.954;2022-08-19T06:48:56;24.90;65.60
37232;DHT22;23125;48.156;15.954;2022-08-19T06:51:23;25.00;65.90
37232;DHT22;23125;48.156;15.954;2022-08-19T06:53:51;25.10;66.10
37232;DHT22;23125;48.156;15.954;2022-08-19T06:56:20;25.20;66.70
37232;DHT22;23125;48.156;15.954;2022-08-19T06:58:48;25.50;68.40
37232;DHT22;23125;48.156;15.954;2022-08-19T07:01:19;25.70;67.40
37232;DHT22;23125;48.156;15.954;2022-08-19T07:03:45;25.90;67.50
37232;DHT22;23125;48.156;15.954;2022-08-19T07:06:15;26.10;67.10
37232;DHT22;23125;48.156;15.954;2022-08-19T07:08:44;26.30;66.90
37232;DHT22;23125;48.156;15.954;2022-08-19T07:11:14;26.40;66.70
37232;DHT22;23125;48.156;15.954;2022-08-19T07:13:40;26.60;66.20
37232;DHT22;23125;48.156;15.954;2022-08-19T07:16:12;26.80;66.00
37232;DHT22;23125;48.156;15.954;2022-08-19T07:18:39;27.00;66.30
37232;DHT22;23125;48.156;15.954;2022-08-19T07:21:08;27.30;66.30
37232;DHT22;23125;48.156;15.954;2022-08-19T07:23:35;27.60;66.50
37232;DHT22;23125;48.156;15.954;2022-08-19T07:26:10;27.90;66.30
37232;DHT22;23125;48.156;15.954;2022-08-19T07:28:36;28.10;65.50
37232;DHT22;23125;48.156;15.954;2022-08-19T07:31:10;28.50;65.80
37232;DHT22;23125;48.156;15.954;2022-08-19T07:33:36;28.80;65.20
37232;DHT22;23125;48.156;15.954;2022-08-19T07:36:08;29.00;63.00
37232;DHT22;23125;48.156;15.954;2022-08-19T07:38:38;29.10;61.10
37232;DHT22;23125;48.156;15.954;2022-08-19T07:41:06;29.10;60.20
37232;DHT22;23125;48.156;15.954;2022-08-19T07:43:32;29.00;59.70
37232;DHT22;23125;48.156;15.954;2022-08-19T07:45:58;29.00;59.80
37232;DHT22;23125;48.156;15.954;2022-08-19T07:48:26;29.30;62.40
37232;DHT22;23125;48.156;15.954;2022-08-19T07:50:57;29.80;63.40
37232;DHT22;23125;48.156;15.954;2022-08-19T07:53:25;30.10;62.20
37232;DHT22;23125;48.156;15.954;2022-08-19T07:55:51;30.80;64.20
37232;DHT22;23125;48.156;15.954;2022-08-19T07:58:20;31.40;62.20
37232;DHT22;23125;48.156;15.954;2022-08-19T08:00:48;31.90;60.00
37232;DHT22;23125;48.156;15.954;2022-08-19T08:03:17;32.30;58.40
37232;DHT22;23125;48.156;15.954;2022-08-19T08:05:44;32.60;57.20
37232;DHT22;23125;48.156;15.954;2022-08-19T08:08:30;32.80;55.40
37232;DHT22;23125;48.156;15.954;2022-08-19T08:11:05;32.80;54.20
37232;DHT22;23125;48.156;15.954;2022-08-19T08:13:31;32.80;53.70
37232;DHT22;23125;48.156;15.954;2022-08-19T08:16:01;32.80;53.20
37232;DHT22;23125;48.156;15.954;2022-08-19T08:18:28;32.80;53.40
37232;DHT22;23125;48.156;15.954;2022-08-19T08:20:55;32.90;53.60
37232;DHT22;23125;48.156;15.954;2022-08-19T08:23:21;33.00;52.80
37232;DHT22;23125;48.156;15.954;2022-08-19T08:25:48;33.20;52.80
37232;DHT22;23125;48.156;15.954;2022-08-19T08:28:15;33.20;52.10
37232;DHT22;23125;48.156;15.954;2022-08-19T08:30:41;33.20;51.50
37232;DHT22;23125;48.156;15.954;2022-08-19T08:33:09;33.20;51.20
37232;DHT22;23125;48.156;15.954;2022-08-19T08:35:36;33.20;51.80
37232;DHT22;23125;48.156;15.954;2022-08-19T08:38:02;33.20;51.30
37232;DHT22;23125;48.156;15.954;2022-08-19T08:41:06;33.40;52.00
37232;DHT22;23125;48.156;15.954;2022-08-19T08:43:40;33.60;51.40
37232;DHT22;23125;48.156;15.954;2022-08-19T08:46:51;33.70;50.60
37232;DHT22;23125;48.156;15.954;2022-08-19T08:52:22;33.60;49.70
37232;DHT22;23125;48.156;15.954;2022-08-19T08:54:54;33.50;49.40
37232;DHT22;23125;48.156;15.954;2022-08-19T09:00:10;33.40;48.70
37232;DHT22;23125;48.156;15.954;2022-08-19T09:02:38;33.30;48.80
37232;DHT22;23125;48.156;15.954;2022-08-19T09:05:04;33.30;49.10
37232;DHT22;23125;48.156;15.954;2022-08-19T09:07:48;33.40;49.90
37232;DHT22;23125;48.156;15.954;2022-08-19T09:13:20;34.10;50.90
37232;DHT22;23125;48.156;15.954;2022-08-19T09:19:02;35.00;49.90
37232;DHT22;23125;48.156;15.954;2022-08-19T09:21:28;35.40;49.20
37232;DHT22;23125;48.156;15.954;2022-08-19T09:23:54;35.80;48.60
37232;DHT22;23125;48.156;15.954;2022-08-19T09:26:22;36.20;47.80
37232;DHT22;23125;48.156;15.954;2022-08-19T09:28:50;36.70;47.10
37232;DHT22;23125;48.156;15.954;2022-08-19T09:31:24;37.10;46.00
37232;DHT22;23125;48.156;15.954;2022-08-19T09:33:51;37.40;44.80
37232;DHT22;23125;48.156;15.954;2022-08-19T09:36:19;37.80;44.50
37232;DHT22;23125;48.156;15.954;2022-08-19T09:38:48;38.10;43.60
37232;DHT22;23125;48.156;15.954;2022-08-19T09:41:16;38.30;42.30
37232;DHT22;23125;48.156;15.954;2022-08-19T09:43:43;38.40;41.50
37232;DHT22;23125;48.156;15.954;2022-08-19T09:46:11;38.40;41.30
37232;DHT22;23125;48.156;15.954;2022-08-19T09:48:39;38.30;40.70
37232;DHT22;23125;48.156;15.954;2022-08-19T09:51:10;38.20;40.40
37232;DHT22;23125;48.156;15.954;2022-08-19T09:53:38;38.00;40.40
37232;DHT22;23125;48.156;15.954;2022-08-19T09:56:05;37.80;40.20
37232;DHT22;23125;48.156;15.954;2022-08-19T09:58:33;37.70;40.40
37232;DHT22;23125;48.156;15.954;2022-08-19T10:01:00;37.50;40.40
37232;DHT22;23125;48.156;15.954;2022-08-19T10:03:28;37.30;40.40
37232;DHT22;23125;48.156;15.954;2022-08-19T10:06:00;37.10;40.40
37232;DHT22;23125;48.156;15.954;2022-08-19T10:08:29;36.90;40.60
37232;DHT22;23125;48.156;15.954;2022-08-19T10:10:56;36.60;40.80
37232;DHT22;23125;48.156;15.954;2022-08-19T10:13:27;36.40;41.20
37232;DHT22;23125;48.156;15.954;2022-08-19T10:15:57;36.20;41.70
37232;DHT22;23125;48.156;15.954;2022-08-19T10:18:27;36.10;42.50
37232;DHT22;23125;48.156;15.954;2022-08-19T10:21:06;36.10;42.70
37232;DHT22;23125;48.156;15.954;2022-08-19T10:23:35;36.00;43.00
37232;DHT22;23125;48.156;15.954;2022-08-19T10:26:04;35.90;43.00
37232;DHT22;23125;48.156;15.954;2022-08-19T10:28:35;35.80;43.10
37232;DHT22;23125;48.156;15.954;2022-08-19T10:31:13;35.80;42.80
37232;DHT22;23125;48.156;15.954;2022-08-19T10:33:40;35.80;43.40
37232;DHT22;23125;48.156;15.954;2022-08-19T10:36:13;35.70;43.20
37232;DHT22;23125;48.156;15.954;2022-08-19T10:38:45;35.80;43.40
37232;DHT22;23125;48.156;15.954;2022-08-19T10:41:17;35.70;43.10
37232;DHT22;23125;48.156;15.954;2022-08-19T10:43:44;35.60;42.70
37232;DHT22;23125;48.156;15.954;2022-08-19T10:46:13;35.50;42.90
37232;DHT22;23125;48.156;15.954;2022-08-19T10:48:41;35.40;43.00
37232;DHT22;23125;48.156;15.954;2022-08-19T10:51:08;35.30;43.20
37232;DHT22;23125;48.156;15.954;2022-08-19T10:53:54;35.30;43.30
37232;DHT22;23125;48.156;15.954;2022-08-19T10:56:21;35.20;43.20
37232;DHT22;23125;48.156;15.954;2022-08-19T10:59:05;35.10;43.80
37232;DHT22;23125;48.156;15.954;2022-08-19T11:01:33;35.10;44.00
37232;DHT22;23125;48.156;15.954;2022-08-19T11:04:01;35.10;44.00
37232;DHT22;23125;48.156;15.954;2022-08-19T11:06:27;35.10;43.90
37232;DHT22;23125;48.156;15.954;2022-08-19T11:08:54;35.20;43.50
37232;DHT22;23125;48.156;15.954;2022-08-19T11:11:21;35.10;43.20
37232;DHT22;23125;48.156;15.954;2022-08-19T11:13:48;35.10;43.20
37232;DHT22;23125;48.156;15.954;2022-08-19T11:16:18;35.10;42.30
37232;DHT22;23125;48.156;15.954;2022-08-19T11:18:50;35.00;40.60
37232;DHT22;23125;48.156;15.954;2022-08-19T11:21:25;34.80;40.20
37232;DHT22;23125;48.156;15.954;2022-08-19T11:24:03;34.70;40.10
37232;DHT22;23125;48.156;15.954;2022-08-19T11:26:32;34.50;40.30
37232;DHT22;23125;48.156;15.954;2022-08-19T11:29:00;34.40;40.20
37232;DHT22;23125;48.156;15.954;2022-08-19T11:31:28;34.30;39.70
37232;DHT22;23125;48.156;15.954;2022-08-19T11:33:58;34.10;39.80
37232;DHT22;23125;48.156;15.954;2022-08-19T11:36:25;33.90;40.00
37232;DHT22;23125;48.156;15.954;2022-08-19T11:38:53;33.80;40.10
37232;DHT22;23125;48.156;15.954;2022-08-19T11:41:21;33.70;40.20
37232;DHT22;23125;48.156;15.954;2022-08-19T11:43:49;33.60;39.90
37232;DHT22;23125;48.156;15.954;2022-08-19T11:46:16;33.60;39.80
37232;DHT22;23125;48.156;15.954;2022-08-19T11:48:43;33.50;39.80
37232;DHT22;23125;48.156;15.954;2022-08-19T11:51:17;33.40;39.80
37232;DHT22;23125;48.156;15.954;2022-08-19T11:53:44;33.30;39.80
37232;DHT22;23125;48.156;15.954;2022-08-19T11:56:11;33.40;40.00
37232;DHT22;23125;48.156;15.954;2022-08-19T11:58:37;33.20;39.70
37232;DHT22;23125;48.156;15.954;2022-08-19T12:01:08;33.20;39.70
37232;DHT22;23125;48.156;15.954;2022-08-19T12:03:34;33.20;39.70
37232;DHT22;23125;48.156;15.954;2022-08-19T12:06:05;33.10;39.60
37232;DHT22;23125;48.156;15.954;2022-08-19T12:08:31;33.10;39.40
37232;DHT22;23125;48.156;15.954;2022-08-19T12:10:58;33.00;39.50
37232;DHT22;23125;48.156;15.954;2022-08-19T12:13:30;33.00;39.80
37232;DHT22;23125;48.156;15.954;2022-08-19T12:15:57;33.00;39.70
37232;DHT22;23125;48.156;15.954;2022-08-19T12:18:24;33.00;39.50
37232;DHT22;23125;48.156;15.954;2022-08-19T12:20:52;33.00;39.60
37232;DHT22;23125;48.156;15.954;2022-08-19T12:23:18;33.00;39.30
37232;DHT22;23125;48.156;15.954;2022-08-19T12:25:46;33.00;39.30
37232;DHT22;23125;48.156;15.954;2022-08-19T12:28:16;32.90;39.00
37232;DHT22;23125;48.156;15.954;2022-08-19T12:30:42;32.90;39.20
37232;DHT22;23125;48.156;15.954;2022-08-19T12:33:08;32.80;38.80
37232;DHT22;23125;48.156;15.954;2022-08-19T12:35:34;32.80;38.70
37232;DHT22;23125;48.156;15.954;2022-08-19T12:38:00;32.70;38.70
37232;DHT22;23125;48.156;15.954;2022-08-19T12:40:28;32.60;38.90
37232;DHT22;23125;48.156;15.954;2022-08-19T12:42:54;32.50;39.10
37232;DHT22;23125;48.156;15.954;2022-08-19T12:45:21;32.50;39.00
37232;DHT22;23125;48.156;15.954;2022-08-19T12:47:48;32.40;39.00
37232;DHT22;23125;48.156;15.954;2022-08-19T12:50:15;32.40;39.10
37232;DHT22;23125;48.156;15.954;2022-08-19T12:52:40;32.30;39.50
37232;DHT22;23125;48.156;15.954;2022-08-19T12:55:09;32.30;39.60
37232;DHT22;23125;48.156;15.954;2022-08-19T12:57:36;32.30;39.60
37232;DHT22;23125;48.156;15.954;2022-08-19T13:00:10;32.30;39.60
37232;DHT22;23125;48.156;15.954;2022-08-19T13:02:39;32.30;39.90
37232;DHT22;23125;48.156;15.954;2022-08-19T13:05:13;32.30;40.00
37232;DHT22;23125;48.156;15.954;2022-08-19T13:07:40;32.30;39.80
37232;DHT22;23125;48.156;15.954;2022-08-19T13:10:08;32.30;39.80
37232;DHT22;23125;48.156;15.954;2022-08-19T13:12:35;32.30;39.70
37232;DHT22;23125;48.156;15.954;2022-08-19T13:15:00;32.30;39.60
37232;DHT22;23125;48.156;15.954;2022-08-19T13:17:27;32.20;39.60
37232;DHT22;23125;48.156;15.954;2022-08-19T13:19:53;32.10;39.60
37232;DHT22;23125;48.156;15.954;2022-08-19T13:22:19;32.10;40.00
37232;DHT22;23125;48.156;15.954;2022-08-19T13:24:45;32.10;40.00
37232;DHT22;23125;48.156;15.954;2022-08-19T13:27:11;32.00;40.10
37232;DHT22;23125;48.156;15.954;2022-08-19T13:29:39;31.90;40.40
37232;DHT22;23125;48.156;15.954;2022-08-19T13:32:23;31.90;40.10
37232;DHT22;23125;48.156;15.954;2022-08-19T13:35:08;31.80;40.70
37232;DHT22;23125;48.156;15.954;2022-08-19T13:37:34;31.70;40.70
37232;DHT22;23125;48.156;15.954;2022-08-19T13:40:17;31.70;40.70
37232;DHT22;23125;48.156;15.954;2022-08-19T13:42:45;31.60;41.10
37232;DHT22;23125;48.156;15.954;2022-08-19T13:45:14;31.60;41.10
37232;DHT22;23125;48.156;15.954;2022-08-19T13:47:41;31.60;41.30
37232;DHT22;23125;48.156;15.954;2022-08-19T13:50:12;31.60;41.50
37232;DHT22;23125;48.156;15.954;2022-08-19T13:52:39;31.70;41.70
37232;DHT22;23125;48.156;15.954;2022-08-19T13:55:07;31.70;41.80
37232;DHT22;23125;48.156;15.954;2022-08-19T13:57:34;31.80;41.70
37232;DHT22;23125;48.156;15.954;2022-08-19T14:00:00;31.90;41.60
37232;DHT22;23125;48.156;15.954;2022-08-19T14:02:26;31.90;41.70
37232;DHT22;23125;48.156;15.954;2022-08-19T14:04:52;31.90;41.80
37232;DHT22;23125;48.156;15.954;2022-08-19T14:07:18;31.90;41.70
37232;DHT22;23125;48.156;15.954;2022-08-19T14:09:44;31.90;42.10
37232;DHT22;23125;48.156;15.954;2022-08-19T14:12:10;32.00;42.20
37232;DHT22;23125;48.156;15.954;2022-08-19T14:14:39;32.00;41.90
37232;DHT22;23125;48.156;15.954;2022-08-19T14:17:08;32.00;41.70
37232;DHT22;23125;48.156;15.954;2022-08-19T14:19:35;31.90;41.60
37232;DHT22;23125;48.156;15.954;2022-08-19T14:22:01;31.90;41.80
37232;DHT22;23125;48.156;15.954;2022-08-19T14:24:28;31.90;41.80
37232;DHT22;23125;48.156;15.954;2022-08-19T14:26:53;31.80;41.70
37232;DHT22;23125;48.156;15.954;2022-08-19T14:29:19;31.80;42.00
37232;DHT22;23125;48.156;15.954;2022-08-19T14:31:45;31.80;42.00
37232;DHT22;23125;48.156;15.954;2022-08-19T14:34:11;31.70;41.70
37232;DHT22;23125;48.156;15.954;2022-08-19T14:36:38;31.70;41.90
37232;DHT22;23125;48.156;15.954;2022-08-19T14:39:04;31.70;41.60
37232;DHT22;23125;48.156;15.954;2022-08-19T14:41:30;31.70;41.50
37232;DHT22;23125;48.156;15.954;2022-08-19T14:43:57;31.70;41.10
37232;DHT22;23125;48.156;15.954;2022-08-19T14:46:26;31.70;40.80
37232;DHT22;23125;48.156;15.954;2022-08-19T14:48:54;31.70;40.50
37232;DHT22;23125;48.156;15.954;2022-08-19T14:51:22;31.70;40.30
37232;DHT22;23125;48.156;15.954;2022-08-19T14:53:49;31.70;40.10
37232;DHT22;23125;48.156;15.954;2022-08-19T14:56:18;31.70;39.80
37232;DHT22;23125;48.156;15.954;2022-08-19T14:58:45;31.70;39.90
37232;DHT22;23125;48.156;15.954;2022-08-19T15:01:12;31.70;39.70
37232;DHT22;23125;48.156;15.954;2022-08-19T15:03:39;31.70;39.50
37232;DHT22;23125;48.156;15.954;2022-08-19T15:06:07;31.70;39.50
37232;DHT22;23125;48.156;15.954;2022-08-19T15:08:35;31.70;39.50
37232;DHT22;23125;48.156;15.954;2022-08-19T15:11:06;31.70;39.00
37232;DHT22;23125;48.156;15.954;2022-08-19T15:13:35;31.60;38.70
37232;DHT22;23125;48.156;15.954;2022-08-19T15:16:01;31.60;38.70
37232;DHT22;23125;48.156;15.954;2022-08-19T15:18:27;31.50;38.90
37232;DHT22;23125;48.156;15.954;2022-08-19T15:20:53;31.60;39.00
37232;DHT22;23125;48.156;15.954;2022-08-19T15:23:21;31.50;38.90
37232;DHT22;23125;48.156;15.954;2022-08-19T15:25:47;31.60;38.80
37232;DHT22;23125;48.156;15.954;2022-08-19T15:28:14;31.50;38.60
37232;DHT22;23125;48.156;15.954;2022-08-19T15:30:42;31.50;38.70
37232;DHT22;23125;48.156;15.954;2022-08-19T15:33:10;31.50;39.40
37232;DHT22;23125;48.156;15.954;2022-08-19T15:35:40;31.40;38.60
37232;DHT22;23125;48.156;15.954;2022-08-19T15:38:07;31.50;38.60
37232;DHT22;23125;48.156;15.954;2022-08-19T15:40:34;31.50;38.70